Wetterstation Vordersexau
Wetterdaten: Woche 07.02.11 - 13.02.11 (KW6)
Datum Zeit Temp. A. Feuchte A. Luftdruck Regen Wind Richtung Taupunkt Windchill Windben
07.02.2011 00:00 -0,6 C 88 % 1025,2 hPa 0,0 l/m 0,0 km/h O-NO -2,3 C -0,6 C 0,0 km/h
07.02.2011 01:00 -1,2 C 88 % 1025,2 hPa 0,0 l/m 0,0 km/h SO -2,9 C -1,2 C 0,0 km/h
07.02.2011 02:00 -2,3 C 88 % 1025,5 hPa 0,0 l/m 0,0 km/h O-NO -4,0 C -2,3 C 0,0 km/h
07.02.2011 03:00 -2,7 C 88 % 1024,9 hPa 0,0 l/m 0,0 km/h O-NO -4,4 C -2,7 C 0,0 km/h
07.02.2011 04:00 -2,8 C 88 % 1025,0 hPa 0,0 l/m 0,0 km/h O-NO -4,5 C -2,8 C 0,0 km/h
07.02.2011 05:00 -3,1 C 89 % 1024,5 hPa 0,0 l/m 0,0 km/h O-NO -4,6 C -3,1 C 0,0 km/h
07.02.2011 06:00 -3,6 C 89 % 1023,5 hPa 0,0 l/m 0,0 km/h O-NO -5,1 C -3,6 C 0,0 km/h
07.02.2011 07:00 -3,8 C 89 % 1023,3 hPa 0,0 l/m 0,0 km/h O-NO -5,3 C -3,8 C 0,0 km/h
07.02.2011 08:00 -3,4 C 89 % 1023,2 hPa 0,0 l/m 0,0 km/h O-NO -4,9 C -3,4 C 0,0 km/h
07.02.2011 09:00 4,6 C 82 % 1023,0 hPa 0,0 l/m 0,0 km/h NW 1,8 C 4,6 C 0,0 km/h
07.02.2011 10:00 9,5 C 61 % 1022,7 hPa 0,0 l/m 0,0 km/h W 2,4 C 9,5 C 0,0 km/h
07.02.2011 11:00 11,1 C 55 % 1022,5 hPa 0,0 l/m 0,0 km/h NW 2,4 C 11,1 C 0,0 km/h
07.02.2011 12:00 11,9 C 52 % 1021,9 hPa 0,0 l/m 3,2 km/h W-SW 2,4 C 11,9 C 1,8 km/h
07.02.2011 13:00 13,1 C 54 % 1021,0 hPa 0,0 l/m 0,0 km/h S-SO 4,0 C 13,1 C 0,0 km/h
07.02.2011 14:00 16,8 C 40 % 1020,3 hPa 0,0 l/m 0,0 km/h O-SO 3,1 C 16,8 C 0,0 km/h
07.02.2011 15:00 20,9 C 33 % 1019,7 hPa 0,0 l/m 0,0 km/h O 4,0 C 20,9 C 0,0 km/h
07.02.2011 16:00 20,5 C 32 % 1019,5 hPa 0,0 l/m 0,0 km/h S-SO 3,2 C 20,5 C 0,0 km/h
07.02.2011 17:00 10,4 C 47 % 1019,1 hPa 0,0 l/m 5,8 km/h O-SO -0,4 C 10,4 C 3,2 km/h
07.02.2011 18:00 4,8 C 63 % 1019,5 hPa 0,0 l/m 2,6 km/h NO -1,6 C 4,8 C 1,4 km/h
07.02.2011 19:00 3,0 C 68 % 1019,3 hPa 0,0 l/m 0,0 km/h NO -2,3 C 3,0 C 0,0 km/h
07.02.2011 20:00 2,1 C 72 % 1019,3 hPa 0,0 l/m 0,0 km/h O-SO -2,4 C 2,1 C 0,0 km/h
07.02.2011 21:00 1,8 C 74 % 1019,2 hPa 0,0 l/m 0,0 km/h SO -2,3 C 1,8 C 0,0 km/h
07.02.2011 22:00 0,9 C 76 % 1019,0 hPa 0,0 l/m 0,0 km/h O -2,8 C 0,9 C 0,0 km/h
07.02.2011 23:00 0,4 C 78 % 1019,9 hPa 0,0 l/m 0,0 km/h O-SO -3,0 C 0,4 C 0,0 km/h
08.02.2011 00:00 0,1 C 80 % 1019,8 hPa 0,0 l/m 0,0 km/h O-SO -2,9 C 0,1 C 0,0 km/h
08.02.2011 01:00 -0,4 C 82 % 1019,8 hPa 0,0 l/m 0,0 km/h O-SO -3,1 C -0,4 C 0,0 km/h
08.02.2011 02:00 -0,1 C 83 % 1020,2 hPa 0,0 l/m 0,0 km/h SO -2,6 C -0,1 C 0,0 km/h
08.02.2011 03:00 -0,5 C 83 % 1020,2 hPa 0,0 l/m 0,0 km/h SO -3,0 C -0,5 C 0,0 km/h
08.02.2011 04:00 -0,7 C 84 % 1020,2 hPa 0,0 l/m 0,0 km/h S-SO -3,1 C -0,7 C 0,0 km/h
08.02.2011 05:00 -1,1 C 86 % 1020,7 hPa 0,0 l/m 0,0 km/h O-SO -3,1 C -1,1 C 0,0 km/h
08.02.2011 06:00 -1,0 C 86 % 1020,8 hPa 0,0 l/m 0,0 km/h SO -3,0 C -1,0 C 0,0 km/h
08.02.2011 07:00 -1,3 C 87 % 1021,7 hPa 0,0 l/m 0,0 km/h O-NO -3,2 C -1,3 C 0,0 km/h
08.02.2011 08:00 -0,2 C 86 % 1022,1 hPa 0,0 l/m 0,0 km/h S-SO -2,3 C -0,2 C 0,0 km/h
08.02.2011 09:00 3,9 C 79 % 1022,1 hPa 0,0 l/m 6,5 km/h O-SO 0,6 C 3,8 C 3,6 km/h
08.02.2011 10:00 11,9 C 61 % 1021,8 hPa 0,0 l/m 0,0 km/h N 4,6 C 11,9 C 0,0 km/h
08.02.2011 11:00 12,4 C 50 % 1022,4 hPa 0,0 l/m 0,0 km/h W 2,3 C 12,4 C 0,0 km/h
08.02.2011 12:00 14,2 C 52 % 1022,1 hPa 0,0 l/m 0,0 km/h N 4,5 C 14,2 C 0,0 km/h
08.02.2011 13:00 14,6 C 49 % 1021,9 hPa 0,0 l/m 0,0 km/h W-NW 4,0 C 14,6 C 0,0 km/h
08.02.2011 14:00 15,9 C 53 % 1021,3 hPa 0,0 l/m 10,4 km/h N-NO 6,3 C 13,9 C 5,8 km/h
08.02.2011 15:00 12,7 C 56 % 1021,1 hPa 0,0 l/m 4,5 km/h W-NW 4,2 C 12,7 C 2,5 km/h
08.02.2011 16:00 13,3 C 60 % 1021,1 hPa 0,0 l/m 3,9 km/h NW 5,7 C 13,3 C 2,2 km/h
08.02.2011 17:00 9,6 C 65 % 1021,1 hPa 0,0 l/m 0,0 km/h N-NW 3,4 C 9,6 C 0,0 km/h
08.02.2011 18:00 7,3 C 74 % 1021,5 hPa 0,0 l/m 0,0 km/h W-NW 3,0 C 7,3 C 0,0 km/h
08.02.2011 19:00 4,1 C 78 % 1021,5 hPa 0,0 l/m 0,0 km/h W 0,6 C 4,1 C 0,0 km/h
08.02.2011 20:00 1,9 C 84 % 1021,4 hPa 0,0 l/m 0,0 km/h NW -0,5 C 1,9 C 0,0 km/h
08.02.2011 21:00 1,6 C 86 % 1021,5 hPa 0,0 l/m 0,0 km/h N -0,5 C 1,6 C 0,0 km/h
08.02.2011 22:00 0,9 C 87 % 1021,4 hPa 0,0 l/m 0,0 km/h O-SO -1,0 C 0,9 C 0,0 km/h
08.02.2011 23:00 -0,5 C 88 % 1021,6 hPa 0,0 l/m 0,0 km/h NO -2,2 C -0,5 C 0,0 km/h
09.02.2011 00:00 0,9 C 88 % 1021,4 hPa 0,0 l/m 0,0 km/h NO -0,9 C 0,9 C 0,0 km/h
09.02.2011 01:00 0,3 C 88 % 1021,4 hPa 0,0 l/m 0,0 km/h O -1,4 C 0,3 C 0,0 km/h
09.02.2011 02:00 0,8 C 88 % 1021,3 hPa 0,0 l/m 0,0 km/h NO -1,0 C 0,8 C 0,0 km/h
09.02.2011 03:00 1,1 C 87 % 1020,9 hPa 0,0 l/m 0,0 km/h O -0,8 C 1,1 C 0,0 km/h
09.02.2011 04:00 1,4 C 87 % 1020,9 hPa 0,0 l/m 0,0 km/h O -0,5 C 1,4 C 0,0 km/h
09.02.2011 05:00 1,1 C 87 % 1020,9 hPa 0,0 l/m 0,0 km/h O-SO -0,8 C 1,1 C 0,0 km/h
09.02.2011 06:00 1,0 C 87 % 1020,9 hPa 0,0 l/m 0,0 km/h O-SO -0,9 C 1,0 C 0,0 km/h
09.02.2011 07:00 0,8 C 87 % 1021,1 hPa 0,0 l/m 0,0 km/h SO -1,1 C 0,8 C 0,0 km/h
09.02.2011 08:00 0,8 C 87 % 1021,2 hPa 0,0 l/m 0,0 km/h NO -1,1 C 0,8 C 0,0 km/h
09.02.2011 09:00 1,8 C 87 % 1021,5 hPa 0,0 l/m 0,0 km/h O -0,1 C 1,8 C 0,0 km/h
09.02.2011 10:00 2,5 C 87 % 1021,7 hPa 0,0 l/m 0,0 km/h N-NO 0,6 C 2,5 C 0,0 km/h
09.02.2011 11:00 3,3 C 88 % 1021,8 hPa 0,0 l/m 0,0 km/h N-NO 1,5 C 3,3 C 0,0 km/h
09.02.2011 12:00 4,0 C 87 % 1021,4 hPa 0,0 l/m 0,0 km/h NO 2,0 C 4,0 C 0,0 km/h
09.02.2011 13:00 4,0 C 87 % 1021,1 hPa 0,0 l/m 0,0 km/h S-SW 2,0 C 4,0 C 0,0 km/h
09.02.2011 14:00 4,1 C 88 % 1020,6 hPa 0,0 l/m 0,0 km/h N-NO 2,3 C 4,1 C 0,0 km/h
09.02.2011 15:00 3,9 C 87 % 1020,6 hPa 0,0 l/m 0,0 km/h W 1,9 C 3,9 C 0,0 km/h
09.02.2011 16:00 3,2 C 88 % 1020,9 hPa 0,0 l/m 1,3 km/h W-NW 1,4 C 3,2 C 0,7 km/h
09.02.2011 17:00 2,8 C 88 % 1020,8 hPa 0,0 l/m 0,0 km/h O 1,0 C 2,8 C 0,0 km/h
09.02.2011 18:00 2,7 C 88 % 1020,9 hPa 0,0 l/m 0,0 km/h SO 0,9 C 2,7 C 0,0 km/h
09.02.2011 19:00 2,4 C 88 % 1020,8 hPa 0,0 l/m 1,3 km/h SO 0,6 C 2,4 C 0,7 km/h
09.02.2011 20:00 2,3 C 87 % 1021,1 hPa 0,0 l/m 2,6 km/h S 0,4 C 2,3 C 1,4 km/h
09.02.2011 21:00 2,1 C 87 % 1021,1 hPa 0,0 l/m 0,0 km/h SO 0,2 C 2,1 C 0,0 km/h
09.02.2011 22:00 1,9 C 87 % 1021,4 hPa 0,0 l/m 0,0 km/h SO -0,0 C 1,9 C 0,0 km/h
09.02.2011 23:00 1,7 C 87 % 1020,9 hPa 0,0 l/m 0,0 km/h O-SO -0,2 C 1,7 C 0,0 km/h
10.02.2011 00:00 1,1 C 87 % 1021,3 hPa 0,0 l/m 0,0 km/h O-SO -0,8 C 1,1 C 0,0 km/h
10.02.2011 01:00 0,9 C 87 % 1021,2 hPa 0,0 l/m 3,2 km/h SO -1,0 C 0,9 C 1,8 km/h
10.02.2011 02:00 0,3 C 87 % 1021,2 hPa 0,0 l/m 0,0 km/h SO -1,6 C 0,3 C 0,0 km/h
10.02.2011 03:00 -0,1 C 87 % 1021,0 hPa 0,0 l/m 1,9 km/h SO -2,0 C -0,1 C 1,1 km/h
10.02.2011 04:00 -0,1 C 86 % 1021,0 hPa 0,0 l/m 1,9 km/h SO -2,2 C -0,1 C 1,1 km/h
10.02.2011 05:00 -0,7 C 87 % 1020,9 hPa 0,0 l/m 11,0 km/h SO -2,6 C -5,0 C 6,1 km/h
10.02.2011 06:00 -0,8 C 87 % 1021,2 hPa 0,0 l/m 0,0 km/h SO -2,7 C -0,8 C 0,0 km/h
10.02.2011 07:00 -1,1 C 87 % 1020,7 hPa 0,0 l/m 0,0 km/h NO -3,0 C -1,1 C 0,0 km/h
10.02.2011 08:00 -1,2 C 87 % 1020,9 hPa 0,0 l/m 0,0 km/h W-NW -3,1 C -1,2 C 0,0 km/h
10.02.2011 09:00 1,1 C 85 % 1021,0 hPa 0,0 l/m 0,0 km/h N-NO -1,1 C 1,1 C 0,0 km/h
10.02.2011 10:00 8,4 C 82 % 1020,5 hPa 0,0 l/m 0,0 km/h W-NW 5,5 C 8,4 C 0,0 km/h
10.02.2011 11:00 13,5 C 62 % 1020,3 hPa 0,0 l/m 1,3 km/h SW 6,4 C 13,5 C 0,7 km/h
10.02.2011 12:00 14,4 C 58 % 1019,4 hPa 0,0 l/m 0,0 km/h W 6,2 C 14,4 C 0,0 km/h
10.02.2011 13:00 17,1 C 48 % 1018,6 hPa 0,0 l/m 2,6 km/h W 6,0 C 17,1 C 1,4 km/h
10.02.2011 14:00 15,8 C 40 % 1018,2 hPa 0,0 l/m 24,0 km/h NW 2,2 C 9,9 C 13,3 km/h
10.02.2011 15:00 15,2 C 45 % 1017,9 hPa 0,0 l/m 0,0 km/h W 3,4 C 15,2 C 0,0 km/h
10.02.2011 16:00 12,7 C 51 % 1017,9 hPa 0,0 l/m 0,0 km/h W-SW 2,8 C 12,7 C 0,0 km/h
10.02.2011 17:00 11,3 C 57 % 1018,0 hPa 0,0 l/m 0,0 km/h N 3,1 C 11,3 C 0,0 km/h
10.02.2011 18:00 9,6 C 62 % 1017,6 hPa 0,0 l/m 0,0 km/h O-SO 2,7 C 9,6 C 0,0 km/h
10.02.2011 19:00 7,6 C 69 % 1017,9 hPa 0,0 l/m 0,0 km/h SO 2,3 C 7,6 C 0,0 km/h
10.02.2011 20:00 6,9 C 75 % 1017,9 hPa 0,0 l/m 0,6 km/h SO 2,8 C 6,9 C 0,4 km/h
10.02.2011 21:00 5,8 C 78 % 1017,5 hPa 0,0 l/m 0,0 km/h O-SO 2,3 C 5,8 C 0,0 km/h
10.02.2011 22:00 5,9 C 81 % 1017,3 hPa 0,0 l/m 0,0 km/h O-SO 2,9 C 5,9 C 0,0 km/h
10.02.2011 23:00 6,0 C 84 % 1017,2 hPa 0,0 l/m 0,0 km/h SO 3,5 C 6,0 C 0,0 km/h
11.02.2011 00:00 6,3 C 87 % 1016,8 hPa 0,4 l/m 1,3 km/h SO 4,3 C 6,3 C 0,7 km/h
11.02.2011 01:00 6,4 C 87 % 1016,5 hPa 0,0 l/m 0,0 km/h S-SO 4,4 C 6,4 C 0,0 km/h
11.02.2011 02:00 6,4 C 88 % 1016,3 hPa 0,0 l/m 0,0 km/h SO 4,6 C 6,4 C 0,0 km/h
11.02.2011 03:00 6,2 C 88 % 1015,7 hPa 0,0 l/m 0,0 km/h O-NO 4,4 C 6,2 C 0,0 km/h
11.02.2011 04:00 6,3 C 88 % 1015,5 hPa 0,0 l/m 0,0 km/h O-SO 4,5 C 6,3 C 0,0 km/h
11.02.2011 05:00 6,3 C 88 % 1015,8 hPa 0,0 l/m 0,0 km/h NO 4,5 C 6,3 C 0,0 km/h
11.02.2011 06:00 6,3 C 88 % 1015,5 hPa 0,0 l/m 0,0 km/h O-NO 4,5 C 6,3 C 0,0 km/h
11.02.2011 07:00 6,3 C 88 % 1015,5 hPa 0,0 l/m 0,0 km/h O-SO 4,5 C 6,3 C 0,0 km/h
11.02.2011 08:00 6,5 C 88 % 1016,2 hPa 0,0 l/m 0,0 km/h O-SO 4,7 C 6,5 C 0,0 km/h
11.02.2011 09:00 7,1 C 88 % 1016,1 hPa 0,0 l/m 0,0 km/h O-SO 5,2 C 7,1 C 0,0 km/h
11.02.2011 10:00 8,1 C 85 % 1016,2 hPa 0,0 l/m 0,0 km/h W-SW 5,7 C 8,1 C 0,0 km/h
11.02.2011 11:00 12,3 C 62 % 1016,0 hPa 0,0 l/m 5,8 km/h W-SW 5,2 C 12,3 C 3,2 km/h
11.02.2011 12:00 13,0 C 51 % 1015,9 hPa 0,0 l/m 23,3 km/h W 3,1 C 6,3 C 13,0 km/h
11.02.2011 13:00 14,5 C 50 % 1015,2 hPa 0,0 l/m 18,8 km/h SW 4,2 C 9,4 C 10,4 km/h
11.02.2011 14:00 16,1 C 47 % 1014,8 hPa 0,0 l/m 24,0 km/h S-SW 4,8 C 10,3 C 13,3 km/h
11.02.2011 15:00 14,9 C 52 % 1014,6 hPa 0,0 l/m 22,0 km/h W-SW 5,1 C 9,1 C 12,2 km/h
11.02.2011 16:00 15,1 C 57 % 1014,4 hPa 0,0 l/m 4,5 km/h W 6,6 C 15,1 C 2,5 km/h
11.02.2011 17:00 13,5 C 63 % 1014,8 hPa 0,0 l/m 7,8 km/h W-SW 6,6 C 12,6 C 4,3 km/h
11.02.2011 18:00 10,9 C 70 % 1015,2 hPa 0,0 l/m 0,0 km/h NO 5,6 C 10,9 C 0,0 km/h
11.02.2011 19:00 9,9 C 74 % 1015,3 hPa 0,0 l/m 0,0 km/h O-NO 5,5 C 9,9 C 0,0 km/h
11.02.2011 20:00 7,7 C 79 % 1015,1 hPa 0,0 l/m 0,0 km/h SO 4,3 C 7,7 C 0,0 km/h
11.02.2011 21:00 5,8 C 84 % 1015,1 hPa 0,0 l/m 1,9 km/h O-SO 3,3 C 5,8 C 1,1 km/h
11.02.2011 22:00 5,3 C 86 % 1015,4 hPa 0,0 l/m 0,0 km/h SO 3,2 C 5,3 C 0,0 km/h
11.02.2011 23:00 4,1 C 87 % 1015,5 hPa 0,0 l/m 0,0 km/h NO 2,1 C 4,1 C 0,0 km/h
12.02.2011 00:00 3,9 C 87 % 1015,4 hPa 0,0 l/m 0,0 km/h NO 1,9 C 3,9 C 0,0 km/h
12.02.2011 01:00 3,5 C 88 % 1015,3 hPa 0,0 l/m 0,0 km/h SO 1,7 C 3,5 C 0,0 km/h
12.02.2011 02:00 2,2 C 88 % 1015,3 hPa 0,0 l/m 4,5 km/h SO 0,4 C 2,2 C 2,5 km/h
12.02.2011 03:00 2,4 C 88 % 1015,3 hPa 0,0 l/m 0,0 km/h NO 0,6 C 2,4 C 0,0 km/h
12.02.2011 04:00 2,1 C 88 % 1014,8 hPa 0,0 l/m 0,0 km/h O-NO 0,3 C 2,1 C 0,0 km/h
12.02.2011 05:00 1,3 C 88 % 1014,8 hPa 0,0 l/m 0,0 km/h S-SO -0,5 C 1,3 C 0,0 km/h
12.02.2011 06:00 1,6 C 88 % 1014,9 hPa 0,0 l/m 0,0 km/h SO -0,2 C 1,6 C 0,0 km/h
12.02.2011 07:00 1,3 C 87 % 1014,9 hPa 0,0 l/m 0,0 km/h S-SO -0,6 C 1,3 C 0,0 km/h
12.02.2011 08:00 2,7 C 87 % 1014,8 hPa 0,0 l/m 0,0 km/h SO 0,8 C 2,7 C 0,0 km/h
12.02.2011 09:00 6,4 C 88 % 1015,0 hPa 0,0 l/m 1,9 km/h O-NO 4,6 C 6,4 C 1,1 km/h
12.02.2011 10:00 8,8 C 82 % 1014,9 hPa 0,0 l/m 0,0 km/h S-SO 5,9 C 8,8 C 0,0 km/h
12.02.2011 11:00 14,8 C 62 % 1014,5 hPa 0,0 l/m 0,0 km/h W 7,6 C 14,8 C 0,0 km/h
12.02.2011 12:00 15,9 C 51 % 1014,1 hPa 0,0 l/m 2,6 km/h W-NW 5,8 C 15,9 C 1,4 km/h
12.02.2011 13:00 15,9 C 50 % 1013,6 hPa 0,0 l/m 0,0 km/h W 5,5 C 15,9 C 0,0 km/h
12.02.2011 14:00 16,5 C 48 % 1013,1 hPa 0,0 l/m 2,6 km/h W 5,5 C 16,5 C 1,4 km/h
12.02.2011 15:00 14,8 C 52 % 1012,7 hPa 0,0 l/m 0,0 km/h N-NW 5,0 C 14,8 C 0,0 km/h
12.02.2011 16:00 14,9 C 51 % 1012,5 hPa 0,0 l/m 0,0 km/h NO 4,9 C 14,9 C 0,0 km/h
12.02.2011 17:00 10,0 C 66 % 1012,4 hPa 0,0 l/m 0,0 km/h O-SO 3,9 C 10,0 C 0,0 km/h
12.02.2011 18:00 7,1 C 75 % 1012,6 hPa 0,0 l/m 0,0 km/h O-NO 3,0 C 7,1 C 0,0 km/h
12.02.2011 19:00 6,1 C 79 % 1012,8 hPa 0,0 l/m 0,0 km/h SO 2,7 C 6,1 C 0,0 km/h
12.02.2011 20:00 5,6 C 81 % 1012,9 hPa 0,0 l/m 0,0 km/h O 2,6 C 5,6 C 0,0 km/h
12.02.2011 21:00 5,8 C 82 % 1013,2 hPa 0,0 l/m 0,0 km/h SO 3,0 C 5,8 C 0,0 km/h
12.02.2011 22:00 5,4 C 84 % 1013,2 hPa 0,0 l/m 0,0 km/h SO 2,9 C 5,4 C 0,0 km/h
12.02.2011 23:00 5,6 C 83 % 1012,7 hPa 0,0 l/m 0,0 km/h O-SO 2,9 C 5,6 C 0,0 km/h
13.02.2011 00:00 5,1 C 84 % 1012,5 hPa 0,0 l/m 0,0 km/h NO 2,6 C 5,1 C 0,0 km/h
13.02.2011 01:00 4,2 C 86 % 1012,4 hPa 0,0 l/m 0,0 km/h W 2,1 C 4,2 C 0,0 km/h
13.02.2011 02:00 8,1 C 81 % 1012,6 hPa 0,0 l/m 3,9 km/h W-SW 5,0 C 8,1 C 2,2 km/h
13.02.2011 03:00 6,9 C 86 % 1012,4 hPa 0,4 l/m 0,0 km/h NW 4,7 C 6,9 C 0,0 km/h
13.02.2011 04:00 6,6 C 87 % 1012,1 hPa 0,4 l/m 0,0 km/h N-NO 4,6 C 6,6 C 0,0 km/h
13.02.2011 05:00 6,2 C 87 % 1012,0 hPa 0,4 l/m 0,0 km/h O-SO 4,2 C 6,2 C 0,0 km/h
13.02.2011 06:00 6,1 C 88 % 1012,0 hPa 0,0 l/m 0,0 km/h O-NO 4,3 C 6,1 C 0,0 km/h
13.02.2011 07:00 5,9 C 88 % 1012,0 hPa 0,0 l/m 0,0 km/h SW 4,1 C 5,9 C 0,0 km/h
13.02.2011 08:00 5,9 C 88 % 1012,0 hPa 0,0 l/m 0,0 km/h W-SW 4,1 C 5,9 C 0,0 km/h
13.02.2011 09:00 7,0 C 88 % 1011,8 hPa 0,0 l/m 0,0 km/h W-SW 5,2 C 7,0 C 0,0 km/h
13.02.2011 10:00 10,5 C 81 % 1011,2 hPa 0,0 l/m 0,0 km/h N 7,4 C 10,5 C 0,0 km/h
13.02.2011 11:00 9,2 C 82 % 1011,1 hPa 0,0 l/m 0,0 km/h W-SW 6,3 C 9,2 C 0,0 km/h
13.02.2011 12:00 10,8 C 77 % 1010,2 hPa 0,0 l/m 0,0 km/h W 6,9 C 10,8 C 0,0 km/h
13.02.2011 13:00 13,8 C 65 % 1009,3 hPa 0,0 l/m 0,0 km/h SW 7,3 C 13,8 C 0,0 km/h
13.02.2011 14:00 14,5 C 59 % 1008,7 hPa 0,0 l/m 0,0 km/h S 6,6 C 14,5 C 0,0 km/h
13.02.2011 15:00 15,6 C 55 % 1007,9 hPa 0,0 l/m 0,0 km/h N 6,6 C 15,6 C 0,0 km/h
13.02.2011 16:00 13,6 C 58 % 1007,3 hPa 0,0 l/m 0,0 km/h W-NW 5,5 C 13,6 C 0,0 km/h
13.02.2011 17:00 9,6 C 71 % 1007,3 hPa 0,0 l/m 0,0 km/h SO 4,6 C 9,6 C 0,0 km/h
13.02.2011 18:00 6,1 C 81 % 1007,0 hPa 0,0 l/m 0,0 km/h SO 3,1 C 6,1 C 0,0 km/h
13.02.2011 19:00 4,4 C 86 % 1007,1 hPa 0,0 l/m 0,0 km/h SO 2,3 C 4,4 C 0,0 km/h
13.02.2011 20:00 5,3 C 87 % 1006,2 hPa 0,0 l/m 3,2 km/h O-SO 3,3 C 5,3 C 1,8 km/h
13.02.2011 21:00 3,6 C 87 % 1006,1 hPa 0,0 l/m 0,0 km/h O-NO 1,6 C 3,6 C 0,0 km/h
13.02.2011 22:00 2,2 C 88 % 1006,7 hPa 0,0 l/m 0,0 km/h SO 0,4 C 2,2 C 0,0 km/h
13.02.2011 23:00 2,5 C 88 % 1007,1 hPa 0,0 l/m 0,0 km/h SO 0,7 C 2,5 C 0,0 km/h
Min-Datum _ 07.02.11 07.02.11 13.02.11 - 07.02.11 - 07.02.11 10.02.11 07.02.11
_ Min-Zeit 07:30 16:30 21:30 - 00:30 - 07:30 05:30 00:30
Minimum _ -3,8 C 32 % 1006,1 hPa - 0,0 km/h - -5,3 C -5,0 C 0,0 km/h
Max-Datum _ 07.02.11 07.02.11 07.02.11 11.02.11 10.02.11 - 12.02.11 07.02.11 10.02.11
_ Max-Zeit 15:30 05:30 02:30 00:30 14:30 - 11:30 15:30 14:30
Maximum _ 20,9 C 89 % 1025,5 hPa 0,4 l/m 24,0 km/h
NW
- 7,6 C 20,9 C 13,3 km/h
NW
Durchschnitt _ 6,0 C 77 % 1017,6 hPa #1,4 l/m 1,3 km/h SO 1,8 C 5,7 C 0,7 km/h
www.sexauwetter.de